sensor_id;sensor_type;location;lat;lon;timestamp;P1;durP1;ratioP1;P2;durP2;ratioP2
20056;SDS011;10189;49.546;7.906;2022-09-19T00:01:45;3.67;;;2.10;;
20056;SDS011;10189;49.546;7.906;2022-09-19T00:04:14;5.47;;;1.40;;
20056;SDS011;10189;49.546;7.906;2022-09-19T00:06:46;2.15;;;1.48;;
20056;SDS011;10189;49.546;7.906;2022-09-19T00:09:16;2.00;;;1.75;;
20056;SDS011;10189;49.546;7.906;2022-09-19T00:11:44;2.72;;;1.25;;
20056;SDS011;10189;49.546;7.906;2022-09-19T00:14:14;2.47;;;1.50;;
20056;SDS011;10189;49.546;7.906;2022-09-19T00:16:43;7.57;;;1.67;;
20056;SDS011;10189;49.546;7.906;2022-09-19T00:19:18;4.15;;;1.20;;
20056;SDS011;10189;49.546;7.906;2022-09-19T00:21:45;1.75;;;1.30;;
20056;SDS011;10189;49.546;7.906;2022-09-19T00:24:15;1.98;;;1.40;;
20056;SDS011;10189;49.546;7.906;2022-09-19T00:27:06;3.42;;;1.33;;
20056;SDS011;10189;49.546;7.906;2022-09-19T00:29:35;4.20;;;1.20;;
20056;SDS011;10189;49.546;7.906;2022-09-19T00:32:03;3.30;;;1.52;;
20056;SDS011;10189;49.546;7.906;2022-09-19T00:34:38;6.97;;;1.70;;
20056;SDS011;10189;49.546;7.906;2022-09-19T00:37:06;3.33;;;1.60;;
20056;SDS011;10189;49.546;7.906;2022-09-19T00:39:33;4.85;;;1.50;;
20056;SDS011;10189;49.546;7.906;2022-09-19T00:41:59;5.75;;;1.50;;
20056;SDS011;10189;49.546;7.906;2022-09-19T00:47:01;2.63;;;1.58;;
20056;SDS011;10189;49.546;7.906;2022-09-19T00:49:43;3.15;;;1.35;;
20056;SDS011;10189;49.546;7.906;2022-09-19T00:52:16;4.65;;;1.65;;
20056;SDS011;10189;49.546;7.906;2022-09-19T00:54:52;4.18;;;1.80;;
20056;SDS011;10189;49.546;7.906;2022-09-19T00:57:19;8.07;;;1.85;;
20056;SDS011;10189;49.546;7.906;2022-09-19T01:02:17;3.28;;;1.35;;
20056;SDS011;10189;49.546;7.906;2022-09-19T01:04:46;9.02;;;1.52;;
20056;SDS011;10189;49.546;7.906;2022-09-19T01:07:26;3.58;;;1.40;;
20056;SDS011;10189;49.546;7.906;2022-09-19T01:10:20;3.70;;;1.35;;
20056;SDS011;10189;49.546;7.906;2022-09-19T01:13:18;3.85;;;1.50;;
20056;SDS011;10189;49.546;7.906;2022-09-19T01:15:51;9.35;;;1.67;;
20056;SDS011;10189;49.546;7.906;2022-09-19T01:18:32;8.20;;;1.80;;
20056;SDS011;10189;49.546;7.906;2022-09-19T01:25:05;4.15;;;1.92;;
20056;SDS011;10189;49.546;7.906;2022-09-19T01:30:42;4.28;;;1.70;;
20056;SDS011;10189;49.546;7.906;2022-09-19T01:33:39;5.10;;;1.70;;
20056;SDS011;10189;49.546;7.906;2022-09-19T01:36:09;6.07;;;1.63;;
20056;SDS011;10189;49.546;7.906;2022-09-19T01:38:40;6.90;;;1.90;;
20056;SDS011;10189;49.546;7.906;2022-09-19T01:41:11;4.82;;;1.52;;
20056;SDS011;10189;49.546;7.906;2022-09-19T01:43:39;5.70;;;1.55;;
20056;SDS011;10189;49.546;7.906;2022-09-19T01:46:06;4.07;;;1.40;;
20056;SDS011;10189;49.546;7.906;2022-09-19T01:48:54;4.88;;;1.83;;
20056;SDS011;10189;49.546;7.906;2022-09-19T01:51:45;6.63;;;1.92;;
20056;SDS011;10189;49.546;7.906;2022-09-19T01:54:28;6.05;;;2.10;;
20056;SDS011;10189;49.546;7.906;2022-09-19T01:57:36;5.35;;;1.88;;
20056;SDS011;10189;49.546;7.906;2022-09-19T02:00:23;10.10;;;2.40;;
20056;SDS011;10189;49.546;7.906;2022-09-19T02:05:58;4.70;;;1.80;;
20056;SDS011;10189;49.546;7.906;2022-09-19T02:11:18;5.28;;;2.35;;
20056;SDS011;10189;49.546;7.906;2022-09-19T02:13:50;7.75;;;1.92;;
20056;SDS011;10189;49.546;7.906;2022-09-19T02:16:24;4.93;;;2.17;;
20056;SDS011;10189;49.546;7.906;2022-09-19T02:18:59;7.55;;;2.17;;
20056;SDS011;10189;49.546;7.906;2022-09-19T02:21:34;7.63;;;2.10;;
20056;SDS011;10189;49.546;7.906;2022-09-19T02:24:09;7.70;;;2.10;;
20056;SDS011;10189;49.546;7.906;2022-09-19T02:26:43;5.85;;;2.10;;
20056;SDS011;10189;49.546;7.906;2022-09-19T02:29:17;8.40;;;2.40;;
20056;SDS011;10189;49.546;7.906;2022-09-19T02:31:50;5.80;;;2.05;;
20056;SDS011;10189;49.546;7.906;2022-09-19T02:34:18;8.25;;;2.15;;
20056;SDS011;10189;49.546;7.906;2022-09-19T02:39:50;9.40;;;2.40;;
20056;SDS011;10189;49.546;7.906;2022-09-19T02:45:11;6.32;;;2.53;;
20056;SDS011;10189;49.546;7.906;2022-09-19T02:50:25;9.20;;;2.50;;
20056;SDS011;10189;49.546;7.906;2022-09-19T02:53:08;4.90;;;2.20;;
20056;SDS011;10189;49.546;7.906;2022-09-19T02:55:48;8.88;;;2.35;;
20056;SDS011;10189;49.546;7.906;2022-09-19T02:58:22;7.47;;;2.33;;
20056;SDS011;10189;49.546;7.906;2022-09-19T03:00:53;6.03;;;2.30;;
20056;SDS011;10189;49.546;7.906;2022-09-19T03:03:29;6.57;;;2.45;;
20056;SDS011;10189;49.546;7.906;2022-09-19T03:06:22;8.55;;;2.30;;
20056;SDS011;10189;49.546;7.906;2022-09-19T03:08:57;13.48;;;2.85;;
20056;SDS011;10189;49.546;7.906;2022-09-19T03:11:26;4.40;;;2.05;;
20056;SDS011;10189;49.546;7.906;2022-09-19T03:13:56;8.13;;;2.53;;
20056;SDS011;10189;49.546;7.906;2022-09-19T03:16:27;6.07;;;2.08;;
20056;SDS011;10189;49.546;7.906;2022-09-19T03:19:02;8.82;;;2.70;;
20056;SDS011;10189;49.546;7.906;2022-09-19T03:21:31;4.60;;;1.63;;
20056;SDS011;10189;49.546;7.906;2022-09-19T03:24:01;8.77;;;3.00;;
20056;SDS011;10189;49.546;7.906;2022-09-19T03:26:29;6.05;;;2.65;;
20056;SDS011;10189;49.546;7.906;2022-09-19T03:29:03;3.97;;;2.47;;
20056;SDS011;10189;49.546;7.906;2022-09-19T03:31:47;6.93;;;2.58;;
20056;SDS011;10189;49.546;7.906;2022-09-19T03:34:15;7.72;;;2.75;;
20056;SDS011;10189;49.546;7.906;2022-09-19T03:36:43;6.30;;;2.33;;
20056;SDS011;10189;49.546;7.906;2022-09-19T03:39:16;6.40;;;2.50;;
20056;SDS011;10189;49.546;7.906;2022-09-19T03:41:43;7.03;;;2.33;;
20056;SDS011;10189;49.546;7.906;2022-09-19T03:44:09;6.13;;;2.67;;
20056;SDS011;10189;49.546;7.906;2022-09-19T03:46:37;7.20;;;2.58;;
20056;SDS011;10189;49.546;7.906;2022-09-19T03:49:02;8.57;;;2.50;;
20056;SDS011;10189;49.546;7.906;2022-09-19T03:51:29;6.03;;;2.50;;
20056;SDS011;10189;49.546;7.906;2022-09-19T03:54:00;7.18;;;2.40;;
20056;SDS011;10189;49.546;7.906;2022-09-19T03:56:31;5.63;;;2.85;;
20056;SDS011;10189;49.546;7.906;2022-09-19T03:58:58;4.07;;;2.40;;
20056;SDS011;10189;49.546;7.906;2022-09-19T04:01:29;5.85;;;2.80;;
20056;SDS011;10189;49.546;7.906;2022-09-19T04:03:55;8.07;;;2.75;;
20056;SDS011;10189;49.546;7.906;2022-09-19T04:06:21;8.77;;;3.28;;
20056;SDS011;10189;49.546;7.906;2022-09-19T04:08:48;7.72;;;2.88;;
20056;SDS011;10189;49.546;7.906;2022-09-19T04:11:14;6.43;;;2.88;;
20056;SDS011;10189;49.546;7.906;2022-09-19T04:13:40;6.78;;;3.33;;
20056;SDS011;10189;49.546;7.906;2022-09-19T04:16:13;10.85;;;3.25;;
20056;SDS011;10189;49.546;7.906;2022-09-19T04:18:40;11.15;;;5.80;;
20056;SDS011;10189;49.546;7.906;2022-09-19T04:21:14;10.07;;;3.65;;
20056;SDS011;10189;49.546;7.906;2022-09-19T04:23:45;11.13;;;3.67;;
20056;SDS011;10189;49.546;7.906;2022-09-19T04:26:17;11.70;;;3.33;;
20056;SDS011;10189;49.546;7.906;2022-09-19T04:28:43;48.13;;;31.58;;
20056;SDS011;10189;49.546;7.906;2022-09-19T04:31:10;40.88;;;29.23;;
20056;SDS011;10189;49.546;7.906;2022-09-19T04:33:38;20.75;;;12.43;;
20056;SDS011;10189;49.546;7.906;2022-09-19T04:36:05;18.25;;;11.25;;
20056;SDS011;10189;49.546;7.906;2022-09-19T04:38:33;18.52;;;11.70;;
20056;SDS011;10189;49.546;7.906;2022-09-19T04:41:05;23.02;;;14.20;;
20056;SDS011;10189;49.546;7.906;2022-09-19T04:43:32;25.65;;;15.02;;
20056;SDS011;10189;49.546;7.906;2022-09-19T04:46:30;16.48;;;8.65;;
20056;SDS011;10189;49.546;7.906;2022-09-19T04:49:02;13.35;;;6.80;;
20056;SDS011;10189;49.546;7.906;2022-09-19T04:51:32;13.35;;;6.13;;
20056;SDS011;10189;49.546;7.906;2022-09-19T04:53:58;14.07;;;9.18;;
20056;SDS011;10189;49.546;7.906;2022-09-19T04:56:26;26.88;;;13.18;;
20056;SDS011;10189;49.546;7.906;2022-09-19T04:58:53;18.88;;;9.75;;
20056;SDS011;10189;49.546;7.906;2022-09-19T05:01:19;15.40;;;8.45;;
20056;SDS011;10189;49.546;7.906;2022-09-19T05:03:46;12.48;;;7.50;;
20056;SDS011;10189;49.546;7.906;2022-09-19T05:06:14;12.30;;;8.32;;
20056;SDS011;10189;49.546;7.906;2022-09-19T05:08:40;14.95;;;7.55;;
20056;SDS011;10189;49.546;7.906;2022-09-19T05:11:25;14.60;;;6.20;;
20056;SDS011;10189;49.546;7.906;2022-09-19T05:13:52;17.40;;;6.25;;
20056;SDS011;10189;49.546;7.906;2022-09-19T05:16:21;13.45;;;6.38;;
20056;SDS011;10189;49.546;7.906;2022-09-19T05:18:54;12.70;;;5.53;;
20056;SDS011;10189;49.546;7.906;2022-09-19T05:21:21;13.85;;;5.47;;
20056;SDS011;10189;49.546;7.906;2022-09-19T05:23:48;8.75;;;5.72;;
20056;SDS011;10189;49.546;7.906;2022-09-19T05:26:14;12.68;;;5.90;;
20056;SDS011;10189;49.546;7.906;2022-09-19T05:29:37;11.73;;;6.03;;
20056;SDS011;10189;49.546;7.906;2022-09-19T05:32:05;12.60;;;5.28;;
20056;SDS011;10189;49.546;7.906;2022-09-19T05:34:51;13.50;;;4.57;;
20056;SDS011;10189;49.546;7.906;2022-09-19T05:37:57;10.20;;;4.72;;
20056;SDS011;10189;49.546;7.906;2022-09-19T05:40:53;10.27;;;4.70;;
20056;SDS011;10189;49.546;7.906;2022-09-19T05:43:38;17.45;;;4.55;;
20056;SDS011;10189;49.546;7.906;2022-09-19T05:46:04;11.60;;;5.40;;
20056;SDS011;10189;49.546;7.906;2022-09-19T05:48:30;16.45;;;5.13;;
20056;SDS011;10189;49.546;7.906;2022-09-19T05:50:57;9.10;;;4.93;;
20056;SDS011;10189;49.546;7.906;2022-09-19T05:53:23;13.77;;;5.78;;
20056;SDS011;10189;49.546;7.906;2022-09-19T05:56:31;9.43;;;5.82;;
20056;SDS011;10189;49.546;7.906;2022-09-19T05:59:00;22.00;;;12.30;;
20056;SDS011;10189;49.546;7.906;2022-09-19T06:01:27;41.47;;;17.58;;
20056;SDS011;10189;49.546;7.906;2022-09-19T06:03:53;20.02;;;8.60;;
20056;SDS011;10189;49.546;7.906;2022-09-19T06:06:21;36.75;;;17.10;;
20056;SDS011;10189;49.546;7.906;2022-09-19T06:08:54;37.72;;;15.27;;
20056;SDS011;10189;49.546;7.906;2022-09-19T06:11:23;34.75;;;14.65;;
20056;SDS011;10189;49.546;7.906;2022-09-19T06:13:51;28.35;;;10.65;;
20056;SDS011;10189;49.546;7.906;2022-09-19T06:16:35;24.38;;;9.15;;
20056;SDS011;10189;49.546;7.906;2022-09-19T06:19:20;18.50;;;8.02;;
20056;SDS011;10189;49.546;7.906;2022-09-19T06:22:12;13.48;;;6.00;;
20056;SDS011;10189;49.546;7.906;2022-09-19T06:24:40;12.82;;;7.05;;
20056;SDS011;10189;49.546;7.906;2022-09-19T06:27:09;16.15;;;8.02;;
20056;SDS011;10189;49.546;7.906;2022-09-19T06:29:38;16.33;;;7.50;;
20056;SDS011;10189;49.546;7.906;2022-09-19T06:32:22;14.95;;;6.75;;
20056;SDS011;10189;49.546;7.906;2022-09-19T06:35:01;18.90;;;9.73;;
20056;SDS011;10189;49.546;7.906;2022-09-19T06:37:31;21.33;;;10.20;;
20056;SDS011;10189;49.546;7.906;2022-09-19T06:39:58;17.60;;;8.23;;
20056;SDS011;10189;49.546;7.906;2022-09-19T06:42:47;10.02;;;5.70;;
20056;SDS011;10189;49.546;7.906;2022-09-19T06:45:16;12.23;;;6.00;;
20056;SDS011;10189;49.546;7.906;2022-09-19T06:48:00;12.93;;;6.40;;
20056;SDS011;10189;49.546;7.906;2022-09-19T06:50:37;14.13;;;6.40;;
20056;SDS011;10189;49.546;7.906;2022-09-19T06:53:07;22.53;;;9.47;;
20056;SDS011;10189;49.546;7.906;2022-09-19T06:55:34;15.85;;;6.75;;
20056;SDS011;10189;49.546;7.906;2022-09-19T06:58:04;13.70;;;6.63;;
20056;SDS011;10189;49.546;7.906;2022-09-19T07:00:33;11.38;;;7.70;;
20056;SDS011;10189;49.546;7.906;2022-09-19T07:03:05;19.15;;;9.38;;
20056;SDS011;10189;49.546;7.906;2022-09-19T07:05:37;18.70;;;9.18;;
20056;SDS011;10189;49.546;7.906;2022-09-19T07:08:33;11.45;;;7.00;;
20056;SDS011;10189;49.546;7.906;2022-09-19T07:11:01;10.85;;;7.22;;
20056;SDS011;10189;49.546;7.906;2022-09-19T07:13:30;10.82;;;6.63;;
20056;SDS011;10189;49.546;7.906;2022-09-19T07:16:00;10.30;;;5.60;;
20056;SDS011;10189;49.546;7.906;2022-09-19T07:18:29;9.68;;;5.70;;
20056;SDS011;10189;49.546;7.906;2022-09-19T07:21:00;10.82;;;4.57;;
20056;SDS011;10189;49.546;7.906;2022-09-19T07:23:31;13.90;;;5.03;;
20056;SDS011;10189;49.546;7.906;2022-09-19T07:26:20;15.48;;;5.90;;
20056;SDS011;10189;49.546;7.906;2022-09-19T07:28:47;9.93;;;4.90;;
20056;SDS011;10189;49.546;7.906;2022-09-19T07:31:13;11.07;;;4.72;;
20056;SDS011;10189;49.546;7.906;2022-09-19T07:33:40;9.20;;;4.88;;
20056;SDS011;10189;49.546;7.906;2022-09-19T07:36:06;15.60;;;4.40;;
20056;SDS011;10189;49.546;7.906;2022-09-19T07:38:33;7.93;;;4.38;;
20056;SDS011;10189;49.546;7.906;2022-09-19T07:41:11;7.43;;;4.00;;
20056;SDS011;10189;49.546;7.906;2022-09-19T07:43:44;8.55;;;4.60;;
20056;SDS011;10189;49.546;7.906;2022-09-19T07:46:32;12.10;;;4.13;;
20056;SDS011;10189;49.546;7.906;2022-09-19T07:49:08;9.50;;;4.10;;
20056;SDS011;10189;49.546;7.906;2022-09-19T07:51:43;9.40;;;4.03;;
20056;SDS011;10189;49.546;7.906;2022-09-19T07:54:09;6.40;;;3.60;;
20056;SDS011;10189;49.546;7.906;2022-09-19T07:56:35;11.27;;;3.85;;
20056;SDS011;10189;49.546;7.906;2022-09-19T07:59:02;9.20;;;4.10;;
20056;SDS011;10189;49.546;7.906;2022-09-19T08:01:39;10.57;;;4.07;;
20056;SDS011;10189;49.546;7.906;2022-09-19T08:04:08;13.65;;;4.75;;
20056;SDS011;10189;49.546;7.906;2022-09-19T08:06:45;7.57;;;4.07;;
20056;SDS011;10189;49.546;7.906;2022-09-19T08:09:13;14.27;;;4.47;;
20056;SDS011;10189;49.546;7.906;2022-09-19T08:12:05;14.20;;;5.15;;
20056;SDS011;10189;49.546;7.906;2022-09-19T08:14:54;8.27;;;4.15;;
20056;SDS011;10189;49.546;7.906;2022-09-19T08:17:22;7.43;;;3.90;;
20056;SDS011;10189;49.546;7.906;2022-09-19T08:19:49;11.63;;;3.95;;
20056;SDS011;10189;49.546;7.906;2022-09-19T08:22:15;10.07;;;3.75;;
20056;SDS011;10189;49.546;7.906;2022-09-19T08:24:52;11.98;;;5.05;;
20056;SDS011;10189;49.546;7.906;2022-09-19T08:27:17;9.38;;;4.70;;
20056;SDS011;10189;49.546;7.906;2022-09-19T08:29:44;9.65;;;3.65;;
20056;SDS011;10189;49.546;7.906;2022-09-19T08:32:14;10.00;;;3.50;;
20056;SDS011;10189;49.546;7.906;2022-09-19T08:34:40;8.88;;;3.95;;
20056;SDS011;10189;49.546;7.906;2022-09-19T08:37:07;15.98;;;4.15;;
20056;SDS011;10189;49.546;7.906;2022-09-19T08:39:36;8.85;;;3.80;;
20056;SDS011;10189;49.546;7.906;2022-09-19T08:42:25;8.63;;;3.58;;
20056;SDS011;10189;49.546;7.906;2022-09-19T08:48:04;5.43;;;2.63;;
20056;SDS011;10189;49.546;7.906;2022-09-19T08:50:43;9.80;;;3.20;;
20056;SDS011;10189;49.546;7.906;2022-09-19T08:53:30;7.68;;;3.10;;
20056;SDS011;10189;49.546;7.906;2022-09-19T08:56:02;6.90;;;3.53;;
20056;SDS011;10189;49.546;7.906;2022-09-19T08:58:32;7.13;;;3.03;;
20056;SDS011;10189;49.546;7.906;2022-09-19T09:01:11;9.20;;;2.95;;
20056;SDS011;10189;49.546;7.906;2022-09-19T09:07:02;8.68;;;2.85;;
20056;SDS011;10189;49.546;7.906;2022-09-19T09:25:12;7.88;;;3.08;;
20056;SDS011;10189;49.546;7.906;2022-09-19T09:28:03;8.38;;;3.03;;
20056;SDS011;10189;49.546;7.906;2022-09-19T09:31:13;8.30;;;2.90;;
20056;SDS011;10189;49.546;7.906;2022-09-19T09:34:00;8.60;;;2.33;;
20056;SDS011;10189;49.546;7.906;2022-09-19T09:36:43;11.18;;;3.03;;
20056;SDS011;10189;49.546;7.906;2022-09-19T09:39:29;7.03;;;2.08;;
20056;SDS011;10189;49.546;7.906;2022-09-19T09:42:25;5.50;;;2.10;;
20056;SDS011;10189;49.546;7.906;2022-09-19T09:45:48;8.43;;;2.83;;
20056;SDS011;10189;49.546;7.906;2022-09-19T09:48:20;12.52;;;6.32;;
20056;SDS011;10189;49.546;7.906;2022-09-19T09:56:56;7.38;;;2.72;;
20056;SDS011;10189;49.546;7.906;2022-09-19T09:59:59;8.00;;;2.30;;
20056;SDS011;10189;49.546;7.906;2022-09-19T10:03:13;8.40;;;2.33;;
20056;SDS011;10189;49.546;7.906;2022-09-19T10:06:38;9.77;;;3.15;;
20056;SDS011;10189;49.546;7.906;2022-09-19T10:09:23;9.80;;;4.65;;
20056;SDS011;10189;49.546;7.906;2022-09-19T10:12:00;8.48;;;3.10;;
20056;SDS011;10189;49.546;7.906;2022-09-19T10:14:40;13.25;;;5.70;;
20056;SDS011;10189;49.546;7.906;2022-09-19T10:17:35;7.80;;;3.15;;
20056;SDS011;10189;49.546;7.906;2022-09-19T10:20:09;9.15;;;2.35;;
20056;SDS011;10189;49.546;7.906;2022-09-19T10:23:00;4.70;;;1.95;;
20056;SDS011;10189;49.546;7.906;2022-09-19T10:25:28;6.88;;;2.67;;
20056;SDS011;10189;49.546;7.906;2022-09-19T10:27:55;9.35;;;4.15;;
20056;SDS011;10189;49.546;7.906;2022-09-19T10:30:55;10.60;;;3.83;;
20056;SDS011;10189;49.546;7.906;2022-09-19T10:33:32;5.63;;;2.10;;
20056;SDS011;10189;49.546;7.906;2022-09-19T10:36:07;11.98;;;5.30;;
20056;SDS011;10189;49.546;7.906;2022-09-19T10:38:50;10.97;;;4.63;;
20056;SDS011;10189;49.546;7.906;2022-09-19T10:41:25;13.70;;;8.10;;
20056;SDS011;10189;49.546;7.906;2022-09-19T10:43:57;13.93;;;6.20;;
20056;SDS011;10189;49.546;7.906;2022-09-19T10:46:30;9.30;;;4.10;;
20056;SDS011;10189;49.546;7.906;2022-09-19T10:49:28;8.35;;;4.55;;
20056;SDS011;10189;49.546;7.906;2022-09-19T10:52:05;9.52;;;3.70;;
20056;SDS011;10189;49.546;7.906;2022-09-19T10:54:33;13.68;;;7.00;;
20056;SDS011;10189;49.546;7.906;2022-09-19T11:00:19;6.07;;;2.78;;
20056;SDS011;10189;49.546;7.906;2022-09-19T11:03:03;9.35;;;3.50;;
20056;SDS011;10189;49.546;7.906;2022-09-19T11:05:42;6.57;;;3.05;;
20056;SDS011;10189;49.546;7.906;2022-09-19T11:08:24;5.35;;;2.85;;
20056;SDS011;10189;49.546;7.906;2022-09-19T11:10:56;7.55;;;2.40;;
20056;SDS011;10189;49.546;7.906;2022-09-19T11:13:32;8.00;;;2.78;;
20056;SDS011;10189;49.546;7.906;2022-09-19T11:18:55;6.40;;;1.50;;
20056;SDS011;10189;49.546;7.906;2022-09-19T11:27:24;5.80;;;1.50;;
20056;SDS011;10189;49.546;7.906;2022-09-19T11:30:30;9.18;;;2.20;;
20056;SDS011;10189;49.546;7.906;2022-09-19T11:33:29;7.22;;;1.90;;
20056;SDS011;10189;49.546;7.906;2022-09-19T11:39:31;5.63;;;1.52;;
20056;SDS011;10189;49.546;7.906;2022-09-19T11:59:40;4.32;;;1.60;;
20056;SDS011;10189;49.546;7.906;2022-09-19T12:02:35;4.38;;;1.83;;
20056;SDS011;10189;49.546;7.906;2022-09-19T12:06:24;5.20;;;1.70;;
20056;SDS011;10189;49.546;7.906;2022-09-19T12:17:02;7.80;;;4.30;;
20056;SDS011;10189;49.546;7.906;2022-09-19T12:19:46;10.60;;;6.63;;
20056;SDS011;10189;49.546;7.906;2022-09-19T12:22:30;8.77;;;3.00;;
20056;SDS011;10189;49.546;7.906;2022-09-19T12:25:12;7.22;;;2.95;;
20056;SDS011;10189;49.546;7.906;2022-09-19T12:30:37;5.13;;;1.70;;
20056;SDS011;10189;49.546;7.906;2022-09-19T12:33:15;3.13;;;1.40;;
20056;SDS011;10189;49.546;7.906;2022-09-19T12:39:11;3.33;;;1.35;;
20056;SDS011;10189;49.546;7.906;2022-09-19T12:44:42;3.00;;;1.30;;
20056;SDS011;10189;49.546;7.906;2022-09-19T12:47:43;6.18;;;1.77;;
20056;SDS011;10189;49.546;7.906;2022-09-19T12:50:38;7.05;;;2.28;;
20056;SDS011;10189;49.546;7.906;2022-09-19T12:58:58;12.65;;;8.20;;
20056;SDS011;10189;49.546;7.906;2022-09-19T13:01:46;11.93;;;4.78;;
20056;SDS011;10189;49.546;7.906;2022-09-19T13:04:27;5.85;;;3.88;;
20056;SDS011;10189;49.546;7.906;2022-09-19T13:07:22;8.32;;;4.50;;
20056;SDS011;10189;49.546;7.906;2022-09-19T13:10:13;7.70;;;4.05;;
20056;SDS011;10189;49.546;7.906;2022-09-19T13:12:54;3.90;;;1.80;;
20056;SDS011;10189;49.546;7.906;2022-09-19T13:15:39;10.07;;;6.65;;
20056;SDS011;10189;49.546;7.906;2022-09-19T13:18:24;6.45;;;3.13;;
20056;SDS011;10189;49.546;7.906;2022-09-19T13:21:15;6.40;;;3.30;;
20056;SDS011;10189;49.546;7.906;2022-09-19T13:24:10;10.07;;;5.55;;
20056;SDS011;10189;49.546;7.906;2022-09-19T13:26:38;5.53;;;3.10;;
20056;SDS011;10189;49.546;7.906;2022-09-19T13:34:33;5.40;;;2.13;;
20056;SDS011;10189;49.546;7.906;2022-09-19T13:48:48;8.60;;;2.88;;
20056;SDS011;10189;49.546;7.906;2022-09-19T13:51:41;3.20;;;1.90;;
20056;SDS011;10189;49.546;7.906;2022-09-19T13:59:27;13.80;;;8.38;;
20056;SDS011;10189;49.546;7.906;2022-09-19T14:04:46;5.80;;;2.27;;
20056;SDS011;10189;49.546;7.906;2022-09-19T14:07:43;5.75;;;1.73;;
20056;SDS011;10189;49.546;7.906;2022-09-19T14:13:01;5.95;;;2.38;;
20056;SDS011;10189;49.546;7.906;2022-09-19T14:19:02;9.82;;;4.80;;
20056;SDS011;10189;49.546;7.906;2022-09-19T14:24:54;10.77;;;4.90;;
20056;SDS011;10189;49.546;7.906;2022-09-19T14:30:59;9.73;;;4.53;;
20056;SDS011;10189;49.546;7.906;2022-09-19T14:32:55;12.23;;;6.57;;
20056;SDS011;10189;49.546;7.906;2022-09-19T14:39:49;8.48;;;3.17;;
20056;SDS011;10189;49.546;7.906;2022-09-19T14:42:51;4.50;;;1.38;;
20056;SDS011;10189;49.546;7.906;2022-09-19T14:54:33;6.53;;;2.30;;
20056;SDS011;10189;49.546;7.906;2022-09-19T14:57:14;4.53;;;1.73;;
20056;SDS011;10189;49.546;7.906;2022-09-19T14:59:42;4.90;;;1.60;;
20056;SDS011;10189;49.546;7.906;2022-09-19T15:02:17;3.88;;;1.30;;
20056;SDS011;10189;49.546;7.906;2022-09-19T15:04:55;5.90;;;1.60;;
20056;SDS011;10189;49.546;7.906;2022-09-19T15:07:44;7.25;;;1.90;;
20056;SDS011;10189;49.546;7.906;2022-09-19T15:12:55;6.07;;;2.38;;
20056;SDS011;10189;49.546;7.906;2022-09-19T15:15:40;5.88;;;3.63;;
20056;SDS011;10189;49.546;7.906;2022-09-19T15:18:18;5.63;;;3.53;;
20056;SDS011;10189;49.546;7.906;2022-09-19T15:20:49;11.52;;;8.20;;
20056;SDS011;10189;49.546;7.906;2022-09-19T15:23:21;6.68;;;3.00;;
20056;SDS011;10189;49.546;7.906;2022-09-19T15:28:28;6.25;;;2.60;;
20056;SDS011;10189;49.546;7.906;2022-09-19T15:31:03;5.90;;;3.03;;
20056;SDS011;10189;49.546;7.906;2022-09-19T15:33:38;5.85;;;3.00;;
20056;SDS011;10189;49.546;7.906;2022-09-19T15:36:06;6.13;;;3.45;;
20056;SDS011;10189;49.546;7.906;2022-09-19T15:38:39;7.47;;;4.00;;
20056;SDS011;10189;49.546;7.906;2022-09-19T15:41:08;6.47;;;3.53;;
20056;SDS011;10189;49.546;7.906;2022-09-19T15:43:39;7.07;;;2.72;;
20056;SDS011;10189;49.546;7.906;2022-09-19T15:48:55;3.85;;;2.10;;
20056;SDS011;10189;49.546;7.906;2022-09-19T15:54:04;7.05;;;3.72;;
20056;SDS011;10189;49.546;7.906;2022-09-19T15:56:48;8.95;;;1.73;;
20056;SDS011;10189;49.546;7.906;2022-09-19T15:59:24;6.18;;;1.77;;
20056;SDS011;10189;49.546;7.906;2022-09-19T16:02:00;4.05;;;2.00;;
20056;SDS011;10189;49.546;7.906;2022-09-19T16:04:42;4.65;;;1.83;;
20056;SDS011;10189;49.546;7.906;2022-09-19T16:07:23;6.13;;;2.45;;
20056;SDS011;10189;49.546;7.906;2022-09-19T16:12:47;7.13;;;2.63;;
20056;SDS011;10189;49.546;7.906;2022-09-19T16:15:20;6.15;;;2.70;;
20056;SDS011;10189;49.546;7.906;2022-09-19T16:23:00;8.25;;;2.42;;
20056;SDS011;10189;49.546;7.906;2022-09-19T16:28:18;6.10;;;1.98;;
20056;SDS011;10189;49.546;7.906;2022-09-19T16:33:54;6.75;;;1.95;;
20056;SDS011;10189;49.546;7.906;2022-09-19T16:36:41;5.93;;;2.78;;
20056;SDS011;10189;49.546;7.906;2022-09-19T16:47:09;10.23;;;8.48;;
20056;SDS011;10189;49.546;7.906;2022-09-19T16:49:43;6.53;;;1.90;;
20056;SDS011;10189;49.546;7.906;2022-09-19T16:52:24;6.28;;;1.83;;
20056;SDS011;10189;49.546;7.906;2022-09-19T16:54:51;6.25;;;2.50;;
20056;SDS011;10189;49.546;7.906;2022-09-19T16:57:20;6.35;;;2.53;;
20056;SDS011;10189;49.546;7.906;2022-09-19T16:59:48;7.15;;;2.22;;
20056;SDS011;10189;49.546;7.906;2022-09-19T17:02:19;5.22;;;2.38;;
20056;SDS011;10189;49.546;7.906;2022-09-19T17:04:51;4.00;;;1.50;;
20056;SDS011;10189;49.546;7.906;2022-09-19T17:07:18;5.30;;;1.70;;
20056;SDS011;10189;49.546;7.906;2022-09-19T17:09:46;3.63;;;1.30;;
20056;SDS011;10189;49.546;7.906;2022-09-19T17:12:17;6.35;;;2.20;;
20056;SDS011;10189;49.546;7.906;2022-09-19T17:14:46;3.90;;;1.70;;
20056;SDS011;10189;49.546;7.906;2022-09-19T17:17:14;5.38;;;1.52;;
20056;SDS011;10189;49.546;7.906;2022-09-19T17:19:41;7.47;;;1.70;;
20056;SDS011;10189;49.546;7.906;2022-09-19T17:22:16;4.00;;;1.50;;
20056;SDS011;10189;49.546;7.906;2022-09-19T17:24:44;4.68;;;1.60;;
20056;SDS011;10189;49.546;7.906;2022-09-19T17:27:11;5.13;;;1.73;;
20056;SDS011;10189;49.546;7.906;2022-09-19T17:29:39;6.38;;;3.50;;
20056;SDS011;10189;49.546;7.906;2022-09-19T17:32:05;5.70;;;1.65;;
20056;SDS011;10189;49.546;7.906;2022-09-19T17:37:02;7.97;;;2.45;;
20056;SDS011;10189;49.546;7.906;2022-09-19T17:39:29;8.68;;;2.90;;
20056;SDS011;10189;49.546;7.906;2022-09-19T17:41:56;12.40;;;3.65;;
20056;SDS011;10189;49.546;7.906;2022-09-19T17:44:22;4.50;;;2.05;;
20056;SDS011;10189;49.546;7.906;2022-09-19T17:46:48;6.82;;;2.40;;
20056;SDS011;10189;49.546;7.906;2022-09-19T17:49:15;3.58;;;2.10;;
20056;SDS011;10189;49.546;7.906;2022-09-19T17:51:41;6.38;;;3.00;;
20056;SDS011;10189;49.546;7.906;2022-09-19T17:54:07;5.25;;;2.63;;
20056;SDS011;10189;49.546;7.906;2022-09-19T17:56:33;6.72;;;2.80;;
20056;SDS011;10189;49.546;7.906;2022-09-19T17:59:01;4.97;;;2.40;;
20056;SDS011;10189;49.546;7.906;2022-09-19T18:01:28;6.47;;;2.90;;
20056;SDS011;10189;49.546;7.906;2022-09-19T18:04:15;4.65;;;2.80;;
20056;SDS011;10189;49.546;7.906;2022-09-19T18:06:44;9.13;;;3.17;;
20056;SDS011;10189;49.546;7.906;2022-09-19T18:09:11;9.30;;;3.60;;
20056;SDS011;10189;49.546;7.906;2022-09-19T18:11:41;7.55;;;4.38;;
20056;SDS011;10189;49.546;7.906;2022-09-19T18:14:07;8.43;;;5.72;;
20056;SDS011;10189;49.546;7.906;2022-09-19T18:16:34;10.48;;;8.23;;
20056;SDS011;10189;49.546;7.906;2022-09-19T18:19:03;9.82;;;8.00;;
20056;SDS011;10189;49.546;7.906;2022-09-19T18:21:34;9.43;;;8.13;;
20056;SDS011;10189;49.546;7.906;2022-09-19T18:24:05;10.38;;;5.88;;
20056;SDS011;10189;49.546;7.906;2022-09-19T18:26:33;8.95;;;6.82;;
20056;SDS011;10189;49.546;7.906;2022-09-19T18:28:59;9.07;;;6.00;;
20056;SDS011;10189;49.546;7.906;2022-09-19T18:31:27;9.73;;;6.10;;
20056;SDS011;10189;49.546;7.906;2022-09-19T18:33:54;8.45;;;4.82;;
20056;SDS011;10189;49.546;7.906;2022-09-19T18:36:21;8.57;;;4.68;;
20056;SDS011;10189;49.546;7.906;2022-09-19T18:38:50;6.07;;;4.13;;
20056;SDS011;10189;49.546;7.906;2022-09-19T18:41:18;9.25;;;2.95;;
20056;SDS011;10189;49.546;7.906;2022-09-19T18:43:46;6.00;;;2.97;;
20056;SDS011;10189;49.546;7.906;2022-09-19T18:46:13;7.80;;;3.03;;
20056;SDS011;10189;49.546;7.906;2022-09-19T18:48:45;6.78;;;2.90;;